EDAC/ADC METAR and TAF weather

Enter ICAO airport designator
Station Type Date Time Source
EDAC METAR 2021/09/25 12:20 UTC NOAA

EDAC 251220Z 22007KT 180V260 9999 FEW038 22/13 Q1017


Station Type Date Time Source
EDAC Decoded METAR 2021/09/25 12:20 UTC NOAA

Altenburg Nobitz, Germany (EDAC) 50-58N 012-30E
Sep 25, 2021 - 08:20 AM EDT / 2021.09.25 1220 UTC
Wind: from the SW (220 degrees) at 8 MPH (7 KT) (direction variable):0
Visibility: greater than 7 mile(s):0
Sky conditions: mostly clear
Temperature: 71 F (22 C)
Dew Point: 55 F (13 C)
Relative Humidity: 56%
Pressure (altimeter): 30.03 in. Hg (1017 hPa)
ob: EDAC 251220Z 22007KT 180V260 9999 FEW038 22/13 Q1017
cycle: 12

Station Type Date Time Source
EDAC TAF UTC NOAA

Error!

Example: see airport list